sensor_id;sensor_type;location;lat;lon;timestamp;P1;durP1;ratioP1;P2;durP2;ratioP2
13743;SDS011;6943;52.368;9.966;2023-04-01T00:00:17;4.70;;;2.17;;
13743;SDS011;6943;52.368;9.966;2023-04-01T00:02:43;4.93;;;3.67;;
13743;SDS011;6943;52.368;9.966;2023-04-01T00:05:09;9.27;;;6.63;;
13743;SDS011;6943;52.368;9.966;2023-04-01T00:07:35;9.97;;;7.63;;
13743;SDS011;6943;52.368;9.966;2023-04-01T00:10:01;9.70;;;6.43;;
13743;SDS011;6943;52.368;9.966;2023-04-01T00:12:28;6.17;;;3.97;;
13743;SDS011;6943;52.368;9.966;2023-04-01T00:14:54;6.40;;;4.43;;
13743;SDS011;6943;52.368;9.966;2023-04-01T00:17:19;7.93;;;4.70;;
13743;SDS011;6943;52.368;9.966;2023-04-01T00:19:45;5.40;;;1.90;;
13743;SDS011;6943;52.368;9.966;2023-04-01T00:22:10;8.07;;;4.80;;
13743;SDS011;6943;52.368;9.966;2023-04-01T00:24:36;4.43;;;2.37;;
13743;SDS011;6943;52.368;9.966;2023-04-01T00:27:02;5.57;;;3.20;;
13743;SDS011;6943;52.368;9.966;2023-04-01T00:29:28;7.03;;;2.73;;
13743;SDS011;6943;52.368;9.966;2023-04-01T00:31:55;9.53;;;3.63;;
13743;SDS011;6943;52.368;9.966;2023-04-01T00:34:21;4.73;;;2.77;;
13743;SDS011;6943;52.368;9.966;2023-04-01T00:36:47;6.53;;;3.50;;
13743;SDS011;6943;52.368;9.966;2023-04-01T00:39:12;7.23;;;3.13;;
13743;SDS011;6943;52.368;9.966;2023-04-01T00:41:38;5.80;;;1.70;;
13743;SDS011;6943;52.368;9.966;2023-04-01T00:44:17;6.50;;;3.43;;
13743;SDS011;6943;52.368;9.966;2023-04-01T00:46:48;5.63;;;2.73;;
13743;SDS011;6943;52.368;9.966;2023-04-01T00:49:14;6.80;;;3.37;;
13743;SDS011;6943;52.368;9.966;2023-04-01T00:51:42;5.23;;;1.83;;
13743;SDS011;6943;52.368;9.966;2023-04-01T00:54:09;4.57;;;1.13;;
13743;SDS011;6943;52.368;9.966;2023-04-01T00:56:40;3.23;;;1.30;;
13743;SDS011;6943;52.368;9.966;2023-04-01T00:59:14;4.73;;;1.27;;
13743;SDS011;6943;52.368;9.966;2023-04-01T01:01:43;3.50;;;1.30;;
13743;SDS011;6943;52.368;9.966;2023-04-01T01:04:26;2.43;;;1.20;;
13743;SDS011;6943;52.368;9.966;2023-04-01T01:10:03;3.53;;;1.47;;
13743;SDS011;6943;52.368;9.966;2023-04-01T01:15:30;3.47;;;1.43;;
13743;SDS011;6943;52.368;9.966;2023-04-01T01:20:48;5.23;;;1.73;;
13743;SDS011;6943;52.368;9.966;2023-04-01T01:29:29;3.47;;;2.10;;
13743;SDS011;6943;52.368;9.966;2023-04-01T01:32:36;3.37;;;1.20;;
13743;SDS011;6943;52.368;9.966;2023-04-01T01:37:49;3.73;;;0.90;;
13743;SDS011;6943;52.368;9.966;2023-04-01T01:40:18;3.10;;;1.10;;
13743;SDS011;6943;52.368;9.966;2023-04-01T01:42:47;5.50;;;1.10;;
13743;SDS011;6943;52.368;9.966;2023-04-01T01:45:15;3.70;;;1.07;;
13743;SDS011;6943;52.368;9.966;2023-04-01T01:47:44;1.93;;;0.70;;
13743;SDS011;6943;52.368;9.966;2023-04-01T01:50:11;3.17;;;0.93;;
13743;SDS011;6943;52.368;9.966;2023-04-01T01:52:38;3.77;;;1.80;;
13743;SDS011;6943;52.368;9.966;2023-04-01T01:55:22;4.50;;;1.70;;
13743;SDS011;6943;52.368;9.966;2023-04-01T01:57:52;2.23;;;0.70;;
13743;SDS011;6943;52.368;9.966;2023-04-01T02:00:19;2.97;;;0.90;;
13743;SDS011;6943;52.368;9.966;2023-04-01T02:02:46;1.67;;;0.70;;
13743;SDS011;6943;52.368;9.966;2023-04-01T02:05:20;2.30;;;1.00;;
13743;SDS011;6943;52.368;9.966;2023-04-01T02:07:49;3.83;;;1.00;;
13743;SDS011;6943;52.368;9.966;2023-04-01T02:10:20;1.13;;;0.77;;
13743;SDS011;6943;52.368;9.966;2023-04-01T02:12:49;1.80;;;0.70;;
13743;SDS011;6943;52.368;9.966;2023-04-01T02:15:18;1.80;;;0.90;;
13743;SDS011;6943;52.368;9.966;2023-04-01T02:17:46;2.10;;;1.00;;
13743;SDS011;6943;52.368;9.966;2023-04-01T02:20:15;2.63;;;0.77;;
13743;SDS011;6943;52.368;9.966;2023-04-01T02:22:48;1.87;;;0.70;;
13743;SDS011;6943;52.368;9.966;2023-04-01T02:25:25;1.23;;;0.60;;
13743;SDS011;6943;52.368;9.966;2023-04-01T02:27:53;4.63;;;1.10;;
13743;SDS011;6943;52.368;9.966;2023-04-01T02:30:21;3.53;;;0.93;;
13743;SDS011;6943;52.368;9.966;2023-04-01T02:32:48;1.83;;;0.80;;
13743;SDS011;6943;52.368;9.966;2023-04-01T02:35:15;1.53;;;0.90;;
13743;SDS011;6943;52.368;9.966;2023-04-01T02:37:42;2.10;;;0.90;;
13743;SDS011;6943;52.368;9.966;2023-04-01T02:40:11;1.03;;;0.67;;
13743;SDS011;6943;52.368;9.966;2023-04-01T02:42:38;4.03;;;0.80;;
13743;SDS011;6943;52.368;9.966;2023-04-01T02:45:04;2.27;;;0.90;;
13743;SDS011;6943;52.368;9.966;2023-04-01T02:47:30;3.47;;;0.80;;
13743;SDS011;6943;52.368;9.966;2023-04-01T02:49:56;2.57;;;0.90;;
13743;SDS011;6943;52.368;9.966;2023-04-01T02:52:26;3.13;;;0.90;;
13743;SDS011;6943;52.368;9.966;2023-04-01T02:54:53;2.07;;;0.87;;
13743;SDS011;6943;52.368;9.966;2023-04-01T02:57:18;3.17;;;0.90;;
13743;SDS011;6943;52.368;9.966;2023-04-01T02:59:44;3.20;;;0.90;;
13743;SDS011;6943;52.368;9.966;2023-04-01T03:02:10;1.70;;;0.80;;
13743;SDS011;6943;52.368;9.966;2023-04-01T03:04:36;3.57;;;0.80;;
13743;SDS011;6943;52.368;9.966;2023-04-01T03:07:01;1.77;;;0.83;;
13743;SDS011;6943;52.368;9.966;2023-04-01T03:09:27;2.93;;;1.10;;
13743;SDS011;6943;52.368;9.966;2023-04-01T03:11:53;4.80;;;1.07;;
13743;SDS011;6943;52.368;9.966;2023-04-01T03:14:19;3.37;;;0.90;;
13743;SDS011;6943;52.368;9.966;2023-04-01T03:16:45;1.53;;;0.90;;
13743;SDS011;6943;52.368;9.966;2023-04-01T03:19:13;3.50;;;1.53;;
13743;SDS011;6943;52.368;9.966;2023-04-01T03:21:38;1.20;;;1.00;;
13743;SDS011;6943;52.368;9.966;2023-04-01T03:24:04;3.23;;;1.07;;
13743;SDS011;6943;52.368;9.966;2023-04-01T03:26:31;5.00;;;0.87;;
13743;SDS011;6943;52.368;9.966;2023-04-01T03:28:56;1.17;;;0.80;;
13743;SDS011;6943;52.368;9.966;2023-04-01T03:31:22;3.77;;;1.10;;
13743;SDS011;6943;52.368;9.966;2023-04-01T03:33:47;3.47;;;0.93;;
13743;SDS011;6943;52.368;9.966;2023-04-01T03:36:13;2.77;;;1.50;;
13743;SDS011;6943;52.368;9.966;2023-04-01T03:38:42;2.53;;;1.00;;
13743;SDS011;6943;52.368;9.966;2023-04-01T03:41:15;2.37;;;1.00;;
13743;SDS011;6943;52.368;9.966;2023-04-01T03:43:42;2.97;;;1.00;;
13743;SDS011;6943;52.368;9.966;2023-04-01T03:46:08;2.23;;;1.10;;
13743;SDS011;6943;52.368;9.966;2023-04-01T03:48:33;4.20;;;1.30;;
13743;SDS011;6943;52.368;9.966;2023-04-01T03:50:59;3.60;;;1.07;;
13743;SDS011;6943;52.368;9.966;2023-04-01T03:53:25;2.73;;;1.63;;
13743;SDS011;6943;52.368;9.966;2023-04-01T03:55:51;2.97;;;1.37;;
13743;SDS011;6943;52.368;9.966;2023-04-01T03:58:17;1.60;;;1.10;;
13743;SDS011;6943;52.368;9.966;2023-04-01T04:00:43;2.13;;;1.00;;
13743;SDS011;6943;52.368;9.966;2023-04-01T04:03:08;3.10;;;1.10;;
13743;SDS011;6943;52.368;9.966;2023-04-01T04:05:34;3.80;;;1.33;;
13743;SDS011;6943;52.368;9.966;2023-04-01T04:08:00;3.60;;;1.33;;
13743;SDS011;6943;52.368;9.966;2023-04-01T04:10:25;2.13;;;1.00;;
13743;SDS011;6943;52.368;9.966;2023-04-01T04:12:51;2.70;;;1.30;;
13743;SDS011;6943;52.368;9.966;2023-04-01T04:15:17;3.33;;;1.20;;
13743;SDS011;6943;52.368;9.966;2023-04-01T04:17:44;3.13;;;1.60;;
13743;SDS011;6943;52.368;9.966;2023-04-01T04:20:10;3.93;;;1.27;;
13743;SDS011;6943;52.368;9.966;2023-04-01T04:22:35;2.97;;;1.17;;
13743;SDS011;6943;52.368;9.966;2023-04-01T04:25:01;1.40;;;1.10;;
13743;SDS011;6943;52.368;9.966;2023-04-01T04:27:26;2.30;;;1.40;;
13743;SDS011;6943;52.368;9.966;2023-04-01T04:29:52;1.80;;;1.40;;
13743;SDS011;6943;52.368;9.966;2023-04-01T04:32:17;1.93;;;1.63;;
13743;SDS011;6943;52.368;9.966;2023-04-01T04:34:43;2.43;;;1.40;;
13743;SDS011;6943;52.368;9.966;2023-04-01T04:37:08;2.80;;;1.60;;
13743;SDS011;6943;52.368;9.966;2023-04-01T04:39:34;2.40;;;1.17;;
13743;SDS011;6943;52.368;9.966;2023-04-01T04:41:59;3.03;;;1.67;;
13743;SDS011;6943;52.368;9.966;2023-04-01T04:44:25;2.60;;;1.60;;
13743;SDS011;6943;52.368;9.966;2023-04-01T04:46:50;3.43;;;1.47;;
13743;SDS011;6943;52.368;9.966;2023-04-01T04:49:16;3.00;;;1.70;;
13743;SDS011;6943;52.368;9.966;2023-04-01T04:51:42;3.83;;;1.60;;
13743;SDS011;6943;52.368;9.966;2023-04-01T04:54:07;4.47;;;1.70;;
13743;SDS011;6943;52.368;9.966;2023-04-01T04:56:33;4.00;;;1.53;;
13743;SDS011;6943;52.368;9.966;2023-04-01T04:58:58;2.50;;;1.37;;
13743;SDS011;6943;52.368;9.966;2023-04-01T05:01:24;1.90;;;1.17;;
13743;SDS011;6943;52.368;9.966;2023-04-01T05:03:50;2.03;;;1.27;;
13743;SDS011;6943;52.368;9.966;2023-04-01T05:06:16;3.10;;;1.53;;
13743;SDS011;6943;52.368;9.966;2023-04-01T05:08:43;2.43;;;1.20;;
13743;SDS011;6943;52.368;9.966;2023-04-01T05:11:10;4.40;;;1.57;;
13743;SDS011;6943;52.368;9.966;2023-04-01T05:13:38;2.10;;;1.40;;
13743;SDS011;6943;52.368;9.966;2023-04-01T05:16:07;2.37;;;1.30;;
13743;SDS011;6943;52.368;9.966;2023-04-01T05:18:38;4.17;;;1.77;;
13743;SDS011;6943;52.368;9.966;2023-04-01T05:21:04;3.10;;;1.40;;
13743;SDS011;6943;52.368;9.966;2023-04-01T05:23:31;4.23;;;1.53;;
13743;SDS011;6943;52.368;9.966;2023-04-01T05:25:58;5.23;;;1.40;;
13743;SDS011;6943;52.368;9.966;2023-04-01T05:28:23;7.70;;;2.23;;
13743;SDS011;6943;52.368;9.966;2023-04-01T05:30:49;3.10;;;1.40;;
13743;SDS011;6943;52.368;9.966;2023-04-01T05:33:15;5.60;;;1.70;;
13743;SDS011;6943;52.368;9.966;2023-04-01T05:35:41;4.23;;;2.03;;
13743;SDS011;6943;52.368;9.966;2023-04-01T05:38:06;2.30;;;1.90;;
13743;SDS011;6943;52.368;9.966;2023-04-01T05:40:32;3.17;;;1.33;;
13743;SDS011;6943;52.368;9.966;2023-04-01T05:42:58;3.90;;;1.40;;
13743;SDS011;6943;52.368;9.966;2023-04-01T05:45:23;2.33;;;1.30;;
13743;SDS011;6943;52.368;9.966;2023-04-01T05:47:49;5.90;;;1.70;;
13743;SDS011;6943;52.368;9.966;2023-04-01T05:50:15;4.23;;;1.40;;
13743;SDS011;6943;52.368;9.966;2023-04-01T05:52:41;2.83;;;1.73;;
13743;SDS011;6943;52.368;9.966;2023-04-01T05:55:06;3.93;;;1.70;;
13743;SDS011;6943;52.368;9.966;2023-04-01T05:57:32;4.33;;;2.10;;
13743;SDS011;6943;52.368;9.966;2023-04-01T05:59:58;3.77;;;2.30;;
13743;SDS011;6943;52.368;9.966;2023-04-01T06:02:24;5.57;;;2.07;;
13743;SDS011;6943;52.368;9.966;2023-04-01T06:04:49;4.70;;;1.80;;
13743;SDS011;6943;52.368;9.966;2023-04-01T06:07:27;3.47;;;1.80;;
13743;SDS011;6943;52.368;9.966;2023-04-01T06:09:53;3.77;;;1.70;;
13743;SDS011;6943;52.368;9.966;2023-04-01T06:15:15;3.60;;;1.53;;
13743;SDS011;6943;52.368;9.966;2023-04-01T06:21:07;2.37;;;1.50;;
13743;SDS011;6943;52.368;9.966;2023-04-01T06:24:15;4.60;;;1.57;;
13743;SDS011;6943;52.368;9.966;2023-04-01T06:30:02;3.37;;;1.77;;
13743;SDS011;6943;52.368;9.966;2023-04-01T06:32:39;3.90;;;1.60;;
13743;SDS011;6943;52.368;9.966;2023-04-01T06:35:25;3.60;;;1.83;;
13743;SDS011;6943;52.368;9.966;2023-04-01T06:38:04;3.83;;;1.70;;
13743;SDS011;6943;52.368;9.966;2023-04-01T06:43:23;2.07;;;1.47;;
13743;SDS011;6943;52.368;9.966;2023-04-01T06:52:13;2.80;;;1.33;;
13743;SDS011;6943;52.368;9.966;2023-04-01T06:54:52;3.17;;;1.60;;
13743;SDS011;6943;52.368;9.966;2023-04-01T07:00:01;2.63;;;1.40;;
13743;SDS011;6943;52.368;9.966;2023-04-01T07:02:34;3.20;;;1.20;;
13743;SDS011;6943;52.368;9.966;2023-04-01T07:05:07;2.03;;;1.30;;
13743;SDS011;6943;52.368;9.966;2023-04-01T07:07:46;3.30;;;1.30;;
13743;SDS011;6943;52.368;9.966;2023-04-01T07:13:04;3.00;;;1.83;;
13743;SDS011;6943;52.368;9.966;2023-04-01T07:15:38;4.47;;;1.97;;
13743;SDS011;6943;52.368;9.966;2023-04-01T07:18:10;3.67;;;1.30;;
13743;SDS011;6943;52.368;9.966;2023-04-01T07:20:41;2.30;;;1.20;;
13743;SDS011;6943;52.368;9.966;2023-04-01T07:23:16;3.03;;;1.27;;
13743;SDS011;6943;52.368;9.966;2023-04-01T07:25:53;1.67;;;1.17;;
13743;SDS011;6943;52.368;9.966;2023-04-01T07:28:23;3.40;;;1.50;;
13743;SDS011;6943;52.368;9.966;2023-04-01T07:31:00;2.33;;;1.40;;
13743;SDS011;6943;52.368;9.966;2023-04-01T07:33:45;3.43;;;1.40;;
13743;SDS011;6943;52.368;9.966;2023-04-01T07:36:32;4.33;;;1.33;;
13743;SDS011;6943;52.368;9.966;2023-04-01T07:42:14;1.70;;;1.20;;
13743;SDS011;6943;52.368;9.966;2023-04-01T07:50:09;2.13;;;1.10;;
13743;SDS011;6943;52.368;9.966;2023-04-01T07:55:29;4.63;;;1.57;;
13743;SDS011;6943;52.368;9.966;2023-04-01T07:58:02;2.97;;;1.30;;
13743;SDS011;6943;52.368;9.966;2023-04-01T08:00:44;3.47;;;1.30;;
13743;SDS011;6943;52.368;9.966;2023-04-01T08:06:32;1.63;;;0.90;;
13743;SDS011;6943;52.368;9.966;2023-04-01T08:09:07;1.60;;;1.00;;
13743;SDS011;6943;52.368;9.966;2023-04-01T08:17:10;1.67;;;0.80;;
13743;SDS011;6943;52.368;9.966;2023-04-01T08:19:56;1.63;;;1.10;;
13743;SDS011;6943;52.368;9.966;2023-04-01T08:22:30;3.27;;;1.17;;
13743;SDS011;6943;52.368;9.966;2023-04-01T08:25:11;2.50;;;1.00;;
13743;SDS011;6943;52.368;9.966;2023-04-01T08:27:49;1.30;;;0.87;;
13743;SDS011;6943;52.368;9.966;2023-04-01T08:30:19;1.43;;;0.90;;
13743;SDS011;6943;52.368;9.966;2023-04-01T08:38:00;4.07;;;1.50;;
13743;SDS011;6943;52.368;9.966;2023-04-01T08:48:56;1.10;;;0.80;;
13743;SDS011;6943;52.368;9.966;2023-04-01T09:03:07;1.90;;;0.80;;
13743;SDS011;6943;52.368;9.966;2023-04-01T09:08:48;1.83;;;0.93;;
13743;SDS011;6943;52.368;9.966;2023-04-01T09:20:07;1.50;;;0.90;;
13743;SDS011;6943;52.368;9.966;2023-04-01T09:28:20;1.63;;;0.83;;
13743;SDS011;6943;52.368;9.966;2023-04-01T09:39:47;1.33;;;0.73;;
13743;SDS011;6943;52.368;9.966;2023-04-01T09:42:07;1.50;;;0.90;;
13743;SDS011;6943;52.368;9.966;2023-04-01T09:44:58;1.37;;;0.73;;
13743;SDS011;6943;52.368;9.966;2023-04-01T09:47:47;1.43;;;0.90;;
13743;SDS011;6943;52.368;9.966;2023-04-01T09:50:38;2.07;;;0.80;;
13743;SDS011;6943;52.368;9.966;2023-04-01T09:55:55;1.30;;;0.83;;
13743;SDS011;6943;52.368;9.966;2023-04-01T10:04:13;2.40;;;0.70;;
13743;SDS011;6943;52.368;9.966;2023-04-01T10:12:28;3.20;;;1.33;;
13743;SDS011;6943;52.368;9.966;2023-04-01T10:21:24;0.90;;;0.70;;
13743;SDS011;6943;52.368;9.966;2023-04-01T10:24:00;1.33;;;0.70;;
13743;SDS011;6943;52.368;9.966;2023-04-01T10:29:52;0.80;;;0.77;;
13743;SDS011;6943;52.368;9.966;2023-04-01T10:44:49;1.63;;;0.70;;
13743;SDS011;6943;52.368;9.966;2023-04-01T10:47:07;2.20;;;0.70;;
13743;SDS011;6943;52.368;9.966;2023-04-01T10:56:08;2.23;;;1.03;;
13743;SDS011;6943;52.368;9.966;2023-04-01T11:02:12;1.23;;;0.73;;
13743;SDS011;6943;52.368;9.966;2023-04-01T11:05:15;2.00;;;0.73;;
13743;SDS011;6943;52.368;9.966;2023-04-01T11:14:18;2.33;;;1.00;;
13743;SDS011;6943;52.368;9.966;2023-04-01T11:22:51;1.73;;;1.00;;
13743;SDS011;6943;52.368;9.966;2023-04-01T11:31:47;0.90;;;0.60;;
13743;SDS011;6943;52.368;9.966;2023-04-01T11:34:37;2.00;;;0.80;;
13743;SDS011;6943;52.368;9.966;2023-04-01T11:37:20;0.83;;;0.60;;
13743;SDS011;6943;52.368;9.966;2023-04-01T11:40:19;1.23;;;0.67;;
13743;SDS011;6943;52.368;9.966;2023-04-01T11:43:08;1.27;;;0.70;;
13743;SDS011;6943;52.368;9.966;2023-04-01T11:45:53;2.27;;;0.73;;
13743;SDS011;6943;52.368;9.966;2023-04-01T11:57:03;1.40;;;0.80;;
13743;SDS011;6943;52.368;9.966;2023-04-01T11:59:47;1.10;;;0.83;;
13743;SDS011;6943;52.368;9.966;2023-04-01T12:05:38;0.87;;;0.60;;
13743;SDS011;6943;52.368;9.966;2023-04-01T12:11:24;0.67;;;0.60;;
13743;SDS011;6943;52.368;9.966;2023-04-01T12:14:29;1.27;;;0.70;;
13743;SDS011;6943;52.368;9.966;2023-04-01T12:17:21;1.43;;;0.90;;
13743;SDS011;6943;52.368;9.966;2023-04-01T12:22:43;2.90;;;0.80;;
13743;SDS011;6943;52.368;9.966;2023-04-01T12:28:14;2.50;;;0.97;;
13743;SDS011;6943;52.368;9.966;2023-04-01T12:30:54;1.63;;;0.70;;
13743;SDS011;6943;52.368;9.966;2023-04-01T12:34:00;1.10;;;0.60;;
13743;SDS011;6943;52.368;9.966;2023-04-01T12:36:43;1.83;;;0.83;;
13743;SDS011;6943;52.368;9.966;2023-04-01T12:39:38;1.07;;;0.60;;
13743;SDS011;6943;52.368;9.966;2023-04-01T12:45:28;0.50;;;0.50;;
13743;SDS011;6943;52.368;9.966;2023-04-01T12:50:56;0.73;;;0.40;;
13743;SDS011;6943;52.368;9.966;2023-04-01T12:53:47;1.57;;;0.50;;
13743;SDS011;6943;52.368;9.966;2023-04-01T13:02:11;1.33;;;0.83;;
13743;SDS011;6943;52.368;9.966;2023-04-01T13:04:57;2.00;;;0.90;;
13743;SDS011;6943;52.368;9.966;2023-04-01T13:13:19;5.53;;;2.57;;
13743;SDS011;6943;52.368;9.966;2023-04-01T13:16:11;3.57;;;1.90;;
13743;SDS011;6943;52.368;9.966;2023-04-01T13:18:53;1.73;;;0.90;;
13743;SDS011;6943;52.368;9.966;2023-04-01T13:21:33;1.67;;;1.13;;
13743;SDS011;6943;52.368;9.966;2023-04-01T13:24:24;3.20;;;1.13;;
13743;SDS011;6943;52.368;9.966;2023-04-01T13:29:43;1.63;;;1.20;;
13743;SDS011;6943;52.368;9.966;2023-04-01T13:34:59;1.90;;;1.03;;
13743;SDS011;6943;52.368;9.966;2023-04-01T13:37:58;1.63;;;1.00;;
13743;SDS011;6943;52.368;9.966;2023-04-01T13:40:57;2.33;;;1.10;;
13743;SDS011;6943;52.368;9.966;2023-04-01T13:43:45;1.50;;;1.40;;
13743;SDS011;6943;52.368;9.966;2023-04-01T13:54:27;1.67;;;1.50;;
13743;SDS011;6943;52.368;9.966;2023-04-01T14:05:59;1.83;;;1.73;;
13743;SDS011;6943;52.368;9.966;2023-04-01T14:14:30;1.57;;;1.47;;
13743;SDS011;6943;52.368;9.966;2023-04-01T14:17:10;1.30;;;1.20;;
13743;SDS011;6943;52.368;9.966;2023-04-01T14:29:10;1.70;;;1.60;;
13743;SDS011;6943;52.368;9.966;2023-04-01T14:34:56;1.90;;;1.80;;
13743;SDS011;6943;52.368;9.966;2023-04-01T14:37:55;2.10;;;1.90;;
13743;SDS011;6943;52.368;9.966;2023-04-01T14:46:25;2.07;;;1.87;;
13743;SDS011;6943;52.368;9.966;2023-04-01T14:49:17;2.80;;;1.77;;
13743;SDS011;6943;52.368;9.966;2023-04-01T14:52:14;1.70;;;1.53;;
13743;SDS011;6943;52.368;9.966;2023-04-01T14:54:46;1.67;;;1.57;;
13743;SDS011;6943;52.368;9.966;2023-04-01T14:57:15;2.37;;;1.97;;
13743;SDS011;6943;52.368;9.966;2023-04-01T15:00:12;2.63;;;2.10;;
13743;SDS011;6943;52.368;9.966;2023-04-01T15:05:46;1.67;;;1.50;;
13743;SDS011;6943;52.368;9.966;2023-04-01T15:08:29;2.10;;;1.47;;
13743;SDS011;6943;52.368;9.966;2023-04-01T15:14:35;2.40;;;1.67;;
13743;SDS011;6943;52.368;9.966;2023-04-01T15:22:46;1.70;;;1.60;;
13743;SDS011;6943;52.368;9.966;2023-04-01T15:39:24;1.90;;;1.43;;
13743;SDS011;6943;52.368;9.966;2023-04-01T15:42:09;1.67;;;1.57;;
13743;SDS011;6943;52.368;9.966;2023-04-01T15:44:46;2.97;;;2.53;;
13743;SDS011;6943;52.368;9.966;2023-04-01T15:50:36;1.70;;;1.60;;
13743;SDS011;6943;52.368;9.966;2023-04-01T15:53:03;2.47;;;2.27;;
13743;SDS011;6943;52.368;9.966;2023-04-01T15:56:09;2.87;;;2.20;;
13743;SDS011;6943;52.368;9.966;2023-04-01T15:58:43;2.10;;;1.63;;
13743;SDS011;6943;52.368;9.966;2023-04-01T16:06:50;2.30;;;1.97;;
13743;SDS011;6943;52.368;9.966;2023-04-01T16:12:12;2.30;;;1.87;;
13743;SDS011;6943;52.368;9.966;2023-04-01T16:14:44;2.37;;;1.93;;
13743;SDS011;6943;52.368;9.966;2023-04-01T16:17:35;1.80;;;1.70;;
13743;SDS011;6943;52.368;9.966;2023-04-01T16:23:24;1.97;;;1.47;;
13743;SDS011;6943;52.368;9.966;2023-04-01T16:32:00;1.70;;;1.57;;
13743;SDS011;6943;52.368;9.966;2023-04-01T16:34:41;1.20;;;1.10;;
13743;SDS011;6943;52.368;9.966;2023-04-01T16:37:12;2.07;;;1.10;;
13743;SDS011;6943;52.368;9.966;2023-04-01T16:39:52;1.30;;;1.10;;
13743;SDS011;6943;52.368;9.966;2023-04-01T16:42:34;1.73;;;1.63;;
13743;SDS011;6943;52.368;9.966;2023-04-01T16:48:20;1.73;;;1.60;;
13743;SDS011;6943;52.368;9.966;2023-04-01T16:50:52;1.87;;;1.67;;
13743;SDS011;6943;52.368;9.966;2023-04-01T16:53:42;1.60;;;1.50;;
13743;SDS011;6943;52.368;9.966;2023-04-01T16:56:14;2.23;;;2.03;;
13743;SDS011;6943;52.368;9.966;2023-04-01T17:07:19;2.63;;;2.10;;
13743;SDS011;6943;52.368;9.966;2023-04-01T17:10:16;2.20;;;2.00;;
13743;SDS011;6943;52.368;9.966;2023-04-01T17:12:56;2.10;;;1.90;;
13743;SDS011;6943;52.368;9.966;2023-04-01T17:23:16;3.40;;;2.30;;
13743;SDS011;6943;52.368;9.966;2023-04-01T17:31:23;2.30;;;2.10;;
13743;SDS011;6943;52.368;9.966;2023-04-01T17:39:53;3.43;;;2.33;;
13743;SDS011;6943;52.368;9.966;2023-04-01T17:48:24;4.20;;;2.47;;
13743;SDS011;6943;52.368;9.966;2023-04-01T17:51:10;2.30;;;2.10;;
13743;SDS011;6943;52.368;9.966;2023-04-01T17:59:35;2.67;;;2.23;;
13743;SDS011;6943;52.368;9.966;2023-04-01T18:04:47;3.10;;;2.53;;
13743;SDS011;6943;52.368;9.966;2023-04-01T18:07:40;3.00;;;2.70;;
13743;SDS011;6943;52.368;9.966;2023-04-01T18:10:58;3.10;;;2.50;;
13743;SDS011;6943;52.368;9.966;2023-04-01T18:16:47;2.60;;;2.40;;
13743;SDS011;6943;52.368;9.966;2023-04-01T18:24:56;2.33;;;2.00;;
13743;SDS011;6943;52.368;9.966;2023-04-01T18:27:38;2.00;;;1.80;;
13743;SDS011;6943;52.368;9.966;2023-04-01T18:35:47;2.60;;;2.40;;
13743;SDS011;6943;52.368;9.966;2023-04-01T18:38:33;3.03;;;2.40;;
13743;SDS011;6943;52.368;9.966;2023-04-01T18:44:03;3.07;;;2.77;;
13743;SDS011;6943;52.368;9.966;2023-04-01T18:47:00;3.83;;;2.67;;
13743;SDS011;6943;52.368;9.966;2023-04-01T18:49:38;2.90;;;2.63;;
13743;SDS011;6943;52.368;9.966;2023-04-01T18:52:51;3.60;;;2.27;;
13743;SDS011;6943;52.368;9.966;2023-04-01T19:00:48;2.10;;;1.90;;
13743;SDS011;6943;52.368;9.966;2023-04-01T19:03:25;2.60;;;2.40;;
13743;SDS011;6943;52.368;9.966;2023-04-01T19:05:59;2.10;;;1.90;;
13743;SDS011;6943;52.368;9.966;2023-04-01T19:08:34;2.97;;;1.97;;
13743;SDS011;6943;52.368;9.966;2023-04-01T19:11:04;3.27;;;2.30;;
13743;SDS011;6943;52.368;9.966;2023-04-01T19:16:53;3.73;;;2.73;;
13743;SDS011;6943;52.368;9.966;2023-04-01T19:25:22;3.37;;;2.70;;
13743;SDS011;6943;52.368;9.966;2023-04-01T19:28:07;3.00;;;2.70;;
13743;SDS011;6943;52.368;9.966;2023-04-01T19:30:54;3.33;;;2.50;;
13743;SDS011;6943;52.368;9.966;2023-04-01T19:33:47;3.93;;;3.10;;
13743;SDS011;6943;52.368;9.966;2023-04-01T19:36:30;6.53;;;5.10;;
13743;SDS011;6943;52.368;9.966;2023-04-01T19:39:11;3.40;;;3.10;;
13743;SDS011;6943;52.368;9.966;2023-04-01T19:41:58;3.53;;;3.20;;
13743;SDS011;6943;52.368;9.966;2023-04-01T19:44:41;4.40;;;3.60;;
13743;SDS011;6943;52.368;9.966;2023-04-01T19:50:26;4.57;;;3.73;;
13743;SDS011;6943;52.368;9.966;2023-04-01T19:55:59;3.13;;;2.83;;
13743;SDS011;6943;52.368;9.966;2023-04-01T19:58:41;7.33;;;4.37;;
13743;SDS011;6943;52.368;9.966;2023-04-01T20:01:27;3.43;;;3.00;;
13743;SDS011;6943;52.368;9.966;2023-04-01T20:04:08;4.00;;;3.60;;
13743;SDS011;6943;52.368;9.966;2023-04-01T20:12:32;4.10;;;3.67;;
13743;SDS011;6943;52.368;9.966;2023-04-01T20:15:22;3.10;;;2.73;;
13743;SDS011;6943;52.368;9.966;2023-04-01T20:17:54;4.47;;;3.57;;
13743;SDS011;6943;52.368;9.966;2023-04-01T20:20:24;5.73;;;4.03;;
13743;SDS011;6943;52.368;9.966;2023-04-01T20:26:02;3.73;;;3.07;;
13743;SDS011;6943;52.368;9.966;2023-04-01T20:28:41;5.23;;;4.27;;
13743;SDS011;6943;52.368;9.966;2023-04-01T20:31:34;4.50;;;3.60;;
13743;SDS011;6943;52.368;9.966;2023-04-01T20:34:22;7.63;;;4.60;;
13743;SDS011;6943;52.368;9.966;2023-04-01T20:42:24;4.93;;;3.93;;
13743;SDS011;6943;52.368;9.966;2023-04-01T20:48:11;8.07;;;4.80;;
13743;SDS011;6943;52.368;9.966;2023-04-01T20:51:06;5.60;;;4.27;;
13743;SDS011;6943;52.368;9.966;2023-04-01T20:53:50;6.53;;;5.47;;
13743;SDS011;6943;52.368;9.966;2023-04-01T20:56:36;5.40;;;3.93;;
13743;SDS011;6943;52.368;9.966;2023-04-01T20:59:16;4.77;;;3.67;;
13743;SDS011;6943;52.368;9.966;2023-04-01T21:02:08;4.97;;;4.03;;
13743;SDS011;6943;52.368;9.966;2023-04-01T21:07:41;6.30;;;5.20;;
13743;SDS011;6943;52.368;9.966;2023-04-01T21:10:29;5.90;;;4.83;;
13743;SDS011;6943;52.368;9.966;2023-04-01T21:13:15;7.20;;;4.80;;
13743;SDS011;6943;52.368;9.966;2023-04-01T21:16:11;6.97;;;4.73;;
13743;SDS011;6943;52.368;9.966;2023-04-01T21:24:57;6.47;;;5.50;;
13743;SDS011;6943;52.368;9.966;2023-04-01T21:35:44;9.20;;;5.10;;
13743;SDS011;6943;52.368;9.966;2023-04-01T21:38:55;8.03;;;5.47;;
13743;SDS011;6943;52.368;9.966;2023-04-01T21:44:35;8.70;;;5.67;;
13743;SDS011;6943;52.368;9.966;2023-04-01T21:47:20;7.57;;;5.93;;
13743;SDS011;6943;52.368;9.966;2023-04-01T21:50:14;6.80;;;5.67;;
13743;SDS011;6943;52.368;9.966;2023-04-01T21:55:56;6.30;;;5.17;;
13743;SDS011;6943;52.368;9.966;2023-04-01T22:04:31;7.23;;;5.37;;
13743;SDS011;6943;52.368;9.966;2023-04-01T22:09:39;7.03;;;4.80;;
13743;SDS011;6943;52.368;9.966;2023-04-01T22:12:27;7.80;;;4.37;;
13743;SDS011;6943;52.368;9.966;2023-04-01T22:15:08;7.53;;;5.77;;
13743;SDS011;6943;52.368;9.966;2023-04-01T22:17:59;6.30;;;4.10;;
13743;SDS011;6943;52.368;9.966;2023-04-01T22:23:26;8.93;;;5.43;;
13743;SDS011;6943;52.368;9.966;2023-04-01T22:25:57;8.17;;;5.77;;
13743;SDS011;6943;52.368;9.966;2023-04-01T22:31:19;9.90;;;6.57;;
13743;SDS011;6943;52.368;9.966;2023-04-01T22:34:10;12.00;;;6.20;;
13743;SDS011;6943;52.368;9.966;2023-04-01T22:39:49;11.60;;;5.97;;
13743;SDS011;6943;52.368;9.966;2023-04-01T22:42:28;9.67;;;5.27;;
13743;SDS011;6943;52.368;9.966;2023-04-01T22:47:57;8.23;;;4.87;;
13743;SDS011;6943;52.368;9.966;2023-04-01T22:50:50;11.77;;;6.47;;
13743;SDS011;6943;52.368;9.966;2023-04-01T22:56:08;10.60;;;5.93;;
13743;SDS011;6943;52.368;9.966;2023-04-01T22:58:43;6.70;;;5.47;;
13743;SDS011;6943;52.368;9.966;2023-04-01T23:01:17;9.63;;;6.33;;
13743;SDS011;6943;52.368;9.966;2023-04-01T23:03:48;9.20;;;5.57;;
13743;SDS011;6943;52.368;9.966;2023-04-01T23:06:20;9.50;;;6.20;;
13743;SDS011;6943;52.368;9.966;2023-04-01T23:08:56;10.37;;;6.90;;
13743;SDS011;6943;52.368;9.966;2023-04-01T23:11:35;11.07;;;5.00;;
13743;SDS011;6943;52.368;9.966;2023-04-01T23:16:57;7.17;;;5.17;;
13743;SDS011;6943;52.368;9.966;2023-04-01T23:22:34;10.27;;;6.13;;
13743;SDS011;6943;52.368;9.966;2023-04-01T23:35:51;8.40;;;5.00;;
13743;SDS011;6943;52.368;9.966;2023-04-01T23:38:38;5.57;;;4.67;;
13743;SDS011;6943;52.368;9.966;2023-04-01T23:41:07;8.13;;;4.57;;